Time;durP1;ratioP1;P1;durP2;ratioP2;P2;SDS_P1;SDS_P2;PMS_P1;PMS_P2;Temp;Humidity;BMP_temperature;BMP_pressure;BME280_temperature;BME280_humidity;BME280_pressure;Samples;Min_cycle;Max_cycle;Signal;HPM_P1;HPM_P2
2022/11/14 00:01:21;;;;;;;10.98;8.00;;;6.20;65.20;;;;;;4993887;28;20052;-51
2022/11/14 00:04:08;;;;;;;10.25;8.18;;;6.30;65.30;;;;;;5012529;28;20052;-51
2022/11/14 00:06:54;;;;;;;11.02;7.88;;;6.20;65.30;;;;;;5012919;28;20061;-50
2022/11/14 00:09:44;;;;;;;10.82;8.18;;;6.20;65.30;;;;;;4992903;28;20133;-46
2022/11/14 00:12:29;;;;;;;10.65;8.15;;;6.20;65.30;;;;;;5009952;28;20064;-47
2022/11/14 00:15:15;;;;;;;9.63;7.90;;;6.20;65.30;;;;;;4973808;28;20162;-49
2022/11/14 00:18:00;;;;;;;10.43;8.25;;;6.20;65.30;;;;;;4981453;28;20418;-49
2022/11/14 00:20:54;;;;;;;12.82;8.45;;;6.10;65.20;;;;;;5005294;28;20736;-51
2022/11/14 00:23:39;;;;;;;11.32;7.72;;;6.20;65.30;;;;;;4998391;28;20142;-47
2022/11/14 00:26:24;;;;;;;10.98;7.57;;;6.10;65.20;;;;;;5008001;28;20518;-46
2022/11/14 00:29:13;;;;;;;10.65;7.97;;;6.10;65.30;;;;;;4997001;28;20046;-50
2022/11/14 00:31:58;;;;;;;11.55;8.60;;;6.10;65.30;;;;;;5012378;28;20044;-46
2022/11/14 00:34:44;;;;;;;10.13;8.02;;;6.00;65.30;;;;;;5011499;28;20056;-46
2022/11/14 00:37:35;;;;;;;10.25;7.28;;;6.00;65.30;;;;;;4995169;28;20423;-49
2022/11/14 00:40:21;;;;;;;9.88;8.73;;;6.00;65.30;;;;;;5006084;28;20049;-49
2022/11/14 00:43:06;;;;;;;9.15;7.85;;;6.00;65.30;;;;;;5011518;28;20445;-46
2022/11/14 00:45:51;;;;;;;9.10;7.38;;;6.00;65.30;;;;;;4996419;28;20050;-48
2022/11/14 00:48:37;;;;;;;9.02;7.43;;;6.00;65.30;;;;;;4992997;28;20138;-50
2022/11/14 00:51:22;;;;;;;9.57;8.07;;;5.90;65.30;;;;;;5010930;28;20053;-50
2022/11/14 00:54:10;;;;;;;11.05;8.25;;;6.00;65.30;;;;;;4985417;28;20053;-50
2022/11/14 00:56:55;;;;;;;9.38;7.45;;;5.90;65.30;;;;;;4994061;28;20061;-46
2022/11/14 00:59:41;;;;;;;10.05;7.25;;;5.90;65.40;;;;;;5009151;28;20061;-46
2022/11/14 01:02:26;;;;;;;10.55;7.95;;;5.90;65.30;;;;;;5011593;28;20056;-46
2022/11/14 01:05:11;;;;;;;8.43;7.10;;;5.80;65.30;;;;;;4996281;28;20053;-50
2022/11/14 01:07:57;;;;;;;9.73;8.02;;;5.80;65.30;;;;;;5011302;28;20057;-50
2022/11/14 01:10:47;;;;;;;8.75;7.82;;;5.80;65.30;;;;;;5011123;28;20052;-51
2022/11/14 01:13:36;;;;;;;10.00;6.95;;;5.80;65.40;;;;;;5011453;28;20092;-46
2022/11/14 01:16:21;;;;;;;11.05;7.38;;;5.80;65.30;;;;;;4992898;28;20104;-46
2022/11/14 01:19:07;;;;;;;9.95;8.13;;;5.70;65.30;;;;;;5011525;28;20065;-50
2022/11/14 01:21:52;;;;;;;9.27;7.03;;;5.70;65.40;;;;;;5010357;28;20048;-46
2022/11/14 01:24:37;;;;;;;11.27;8.32;;;5.70;65.40;;;;;;4982999;28;20126;-47
2022/11/14 01:27:26;;;;;;;9.55;7.70;;;5.70;65.50;;;;;;5009055;28;20057;-48
2022/11/14 01:30:12;;;;;;;9.50;7.10;;;5.70;65.50;;;;;;4972570;28;20070;-46
2022/11/14 01:32:59;;;;;;;11.90;7.78;;;5.60;65.50;;;;;;4979224;28;20052;-49
2022/11/14 01:35:47;;;;;;;8.45;6.85;;;5.60;65.70;;;;;;5004490;28;20434;-50
2022/11/14 01:38:32;;;;;;;10.20;8.48;;;5.60;65.50;;;;;;5010137;28;20052;-50
2022/11/14 01:41:20;;;;;;;10.70;8.20;;;5.60;65.50;;;;;;5000221;28;20045;-46
2022/11/14 01:44:15;;;;;;;9.35;7.78;;;5.60;65.50;;;;;;4996323;28;20044;-50
2022/11/14 01:47:02;;;;;;;10.55;8.43;;;5.60;65.50;;;;;;5011103;28;20096;-48
2022/11/14 01:50:00;;;;;;;10.68;7.78;;;5.60;65.50;;;;;;5011293;28;20056;-46
2022/11/14 01:52:48;;;;;;;9.60;6.97;;;5.50;65.50;;;;;;4994809;28;20062;-47
2022/11/14 01:55:34;;;;;;;10.35;7.72;;;5.60;65.50;;;;;;5005210;28;20649;-46
2022/11/14 01:58:20;;;;;;;8.07;7.25;;;5.50;65.50;;;;;;5011078;28;20129;-50
2022/11/14 02:01:07;;;;;;;9.18;6.43;;;5.50;65.50;;;;;;4995527;28;20049;-50
2022/11/14 02:03:56;;;;;;;8.65;7.45;;;5.50;65.60;;;;;;4996233;28;20123;-49
2022/11/14 02:06:45;;;;;;;8.23;6.57;;;5.50;65.60;;;;;;5010853;28;20149;-47
2022/11/14 02:09:39;;;;;;;7.78;6.43;;;5.50;65.60;;;;;;5004802;28;20097;-46
2022/11/14 02:12:24;;;;;;;9.20;7.30;;;5.50;65.60;;;;;;4993180;28;20638;-50
2022/11/14 02:15:13;;;;;;;9.65;7.40;;;5.40;65.50;;;;;;5001464;28;20049;-47
2022/11/14 02:18:00;;;;;;;9.55;6.82;;;5.40;65.60;;;;;;4996013;28;20560;-46
2022/11/14 02:20:47;;;;;;;10.35;7.13;;;5.40;65.60;;;;;;4999709;28;20057;-49
2022/11/14 02:23:34;;;;;;;8.05;7.05;;;5.40;65.60;;;;;;5000599;28;20089;-49
2022/11/14 02:26:21;;;;;;;8.38;7.10;;;5.40;65.70;;;;;;5010458;28;20108;-45
2022/11/14 02:29:11;;;;;;;8.20;6.05;;;5.40;65.60;;;;;;5014776;28;20076;-47
2022/11/14 02:31:59;;;;;;;8.75;6.60;;;5.40;65.60;;;;;;5006410;28;20048;-47
2022/11/14 02:34:44;;;;;;;9.93;6.95;;;5.40;65.60;;;;;;5006556;28;20057;-48
2022/11/14 02:37:31;;;;;;;10.63;8.27;;;5.40;65.60;;;;;;5014454;28;20049;-49
2022/11/14 02:40:17;;;;;;;8.77;7.45;;;5.30;65.60;;;;;;4998243;28;20188;-46
2022/11/14 02:43:05;;;;;;;8.07;6.20;;;5.30;65.60;;;;;;5013800;28;20160;-47
2022/11/14 02:45:50;;;;;;;8.18;6.65;;;5.30;65.60;;;;;;5014221;28;20061;-47
2022/11/14 02:48:35;;;;;;;9.88;7.30;;;5.30;65.60;;;;;;4993814;28;20045;-48
2022/11/14 02:51:23;;;;;;;9.93;6.75;;;5.30;65.70;;;;;;5003427;28;20099;-46
2022/11/14 02:54:11;;;;;;;8.75;6.47;;;5.30;65.70;;;;;;4987513;28;20170;-50
2022/11/14 02:56:57;;;;;;;9.73;7.03;;;5.30;65.80;;;;;;4989024;28;20052;-49
2022/11/14 02:59:43;;;;;;;9.05;7.68;;;5.30;66.30;;;;;;5001658;28;20136;-50
2022/11/14 03:02:31;;;;;;;8.77;7.38;;;5.30;65.70;;;;;;5013609;28;20060;-50
2022/11/14 03:05:18;;;;;;;6.95;6.07;;;5.20;65.60;;;;;;5007643;28;20632;-50
2022/11/14 03:08:03;;;;;;;8.88;5.88;;;5.30;65.70;;;;;;5006039;28;20052;-50
2022/11/14 03:10:54;;;;;;;7.80;6.30;;;5.20;65.60;;;;;;5013694;28;20056;-50
2022/11/14 03:13:39;;;;;;;8.07;6.43;;;5.20;65.70;;;;;;5001648;28;20053;-50
2022/11/14 03:16:26;;;;;;;8.18;6.70;;;5.20;66.10;;;;;;4994862;28;20180;-48
2022/11/14 03:19:12;;;;;;;8.18;7.05;;;5.20;65.70;;;;;;4994910;28;20123;-50
2022/11/14 03:21:57;;;;;;;10.52;6.20;;;5.20;65.70;;;;;;4995169;28;20049;-45
2022/11/14 03:24:44;;;;;;;9.02;6.55;;;5.20;65.60;;;;;;5001604;28;20045;-48
2022/11/14 03:27:29;;;;;;;9.02;6.50;;;5.20;65.70;;;;;;5013831;28;20454;-49
2022/11/14 03:30:15;;;;;;;8.55;6.97;;;5.20;65.70;;;;;;5013205;28;20064;-46
2022/11/14 03:33:03;;;;;;;8.38;5.85;;;5.10;65.70;;;;;;4991425;28;20426;-46
2022/11/14 03:35:52;;;;;;;8.40;6.57;;;5.10;65.80;;;;;;4997980;28;20049;-47
2022/11/14 03:38:37;;;;;;;7.85;6.63;;;5.10;65.80;;;;;;5012842;28;20163;-47
2022/11/14 03:41:27;;;;;;;8.20;5.95;;;5.10;65.80;;;;;;4973795;28;20174;-48
2022/11/14 03:44:18;;;;;;;8.32;6.65;;;5.10;65.90;;;;;;4991104;28;20048;-47
2022/11/14 03:47:04;;;;;;;8.90;6.03;;;5.10;65.90;;;;;;5013016;28;20119;-46
2022/11/14 03:49:49;;;;;;;7.65;6.45;;;5.10;65.80;;;;;;5013354;28;20085;-50
2022/11/14 03:52:34;;;;;;;8.13;6.53;;;5.10;65.90;;;;;;4997478;28;20060;-46
2022/11/14 03:55:20;;;;;;;7.97;6.50;;;5.10;65.90;;;;;;4995469;28;20541;-49
2022/11/14 03:58:07;;;;;;;7.40;5.97;;;5.10;65.90;;;;;;5012916;28;20173;-48
2022/11/14 04:00:55;;;;;;;7.93;6.65;;;5.10;65.90;;;;;;5010687;28;20044;-47
2022/11/14 04:03:46;;;;;;;7.43;6.25;;;5.00;65.80;;;;;;5006736;28;20054;-47
2022/11/14 04:06:31;;;;;;;6.10;5.47;;;5.10;65.90;;;;;;5012825;28;20068;-47
2022/11/14 04:09:16;;;;;;;7.53;6.00;;;5.10;65.90;;;;;;5012859;28;20411;-50
2022/11/14 04:12:04;;;;;;;10.68;6.18;;;5.10;65.80;;;;;;4995531;28;20048;-47
2022/11/14 04:14:59;;;;;;;8.98;6.45;;;5.00;65.80;;;;;;5003294;28;20529;-50
2022/11/14 04:17:45;;;;;;;9.57;6.63;;;5.00;65.80;;;;;;5012362;28;20048;-46
2022/11/14 04:20:32;;;;;;;8.88;6.35;;;5.00;66.10;;;;;;5011975;28;20173;-47
2022/11/14 04:23:18;;;;;;;8.13;5.70;;;5.00;66.20;;;;;;4996084;28;20057;-46
2022/11/14 04:26:03;;;;;;;8.20;6.10;;;5.00;66.20;;;;;;5008668;28;20092;-47
2022/11/14 04:28:49;;;;;;;8.45;5.57;;;5.00;66.20;;;;;;5012100;28;20056;-47
2022/11/14 04:31:34;;;;;;;8.70;5.63;;;5.00;66.20;;;;;;4997903;28;20102;-47
2022/11/14 04:34:22;;;;;;;6.65;5.50;;;5.00;66.20;;;;;;4994911;28;20405;-48
2022/11/14 04:37:07;;;;;;;8.50;7.00;;;4.90;66.20;;;;;;4998791;28;20057;-50
2022/11/14 04:39:57;;;;;;;7.03;6.13;;;5.10;66.30;;;;;;5002748;28;20065;-47
2022/11/14 04:42:42;;;;;;;6.55;5.43;;;5.00;66.20;;;;;;5004131;28;20453;-47
2022/11/14 04:45:30;;;;;;;7.63;5.90;;;5.00;66.20;;;;;;5012045;28;20101;-46
2022/11/14 04:48:15;;;;;;;9.40;6.30;;;5.00;66.20;;;;;;5012150;28;20116;-46
2022/11/14 04:51:01;;;;;;;7.45;5.63;;;5.00;66.20;;;;;;4986809;28;20056;-47
2022/11/14 04:53:46;;;;;;;7.28;5.53;;;5.00;66.20;;;;;;5011173;28;20061;-48
2022/11/14 04:56:32;;;;;;;10.45;6.38;;;5.00;66.10;;;;;;4996029;28;20073;-50
2022/11/14 04:59:17;;;;;;;11.50;5.95;;;5.00;66.10;;;;;;4988557;28;20049;-50
2022/11/14 05:02:06;;;;;;;7.88;5.57;;;4.90;66.00;;;;;;4999947;28;20057;-47
2022/11/14 05:04:52;;;;;;;7.57;5.97;;;4.90;66.00;;;;;;5011625;28;20469;-50
2022/11/14 05:07:37;;;;;;;6.35;5.55;;;4.90;66.00;;;;;;5011909;28;20048;-47
2022/11/14 05:10:25;;;;;;;6.57;5.63;;;4.90;66.00;;;;;;4992096;28;20183;-45
2022/11/14 05:13:11;;;;;;;7.35;5.70;;;4.90;66.70;;;;;;5011512;28;20045;-50
2022/11/14 05:16:00;;;;;;;6.18;5.60;;;4.90;66.10;;;;;;5011799;28;20418;-50
2022/11/14 05:18:47;;;;;;;9.75;5.70;;;4.90;66.10;;;;;;4996309;28;20065;-50
2022/11/14 05:21:33;;;;;;;7.95;6.00;;;4.90;66.00;;;;;;5008796;28;20080;-50
2022/11/14 05:24:18;;;;;;;6.93;5.75;;;4.90;66.10;;;;;;4995849;28;20057;-48
2022/11/14 05:27:07;;;;;;;6.40;5.07;;;4.90;66.00;;;;;;5008068;28;20049;-47
2022/11/14 05:29:54;;;;;;;6.72;5.75;;;4.80;66.60;;;;;;5000582;28;20060;-46
2022/11/14 05:32:39;;;;;;;7.70;5.22;;;4.80;66.00;;;;;;5010491;28;20585;-49
2022/11/14 05:35:24;;;;;;;9.40;7.10;;;4.80;66.00;;;;;;4998870;28;20098;-48
2022/11/14 05:38:09;;;;;;;9.93;5.85;;;4.80;66.00;;;;;;5010893;28;20529;-47
2022/11/14 05:40:55;;;;;;;9.00;6.25;;;4.80;66.00;;;;;;5010333;28;20092;-47
2022/11/14 05:43:41;;;;;;;8.68;6.20;;;4.80;66.10;;;;;;4997811;28;20526;-48
2022/11/14 05:46:26;;;;;;;9.68;5.97;;;4.80;66.20;;;;;;4998771;28;20092;-48
2022/11/14 05:49:13;;;;;;;6.45;5.55;;;4.70;66.00;;;;;;4992503;28;20069;-46
2022/11/14 05:52:05;;;;;;;10.75;5.80;;;4.80;66.10;;;;;;4997452;28;20418;-46
2022/11/14 05:54:51;;;;;;;10.27;6.57;;;4.80;66.10;;;;;;5009871;28;20128;-46
2022/11/14 05:57:38;;;;;;;8.45;5.93;;;4.80;66.10;;;;;;4996626;28;20049;-46
2022/11/14 06:00:30;;;;;;;8.38;6.13;;;4.70;66.10;;;;;;5010911;28;20071;-48
2022/11/14 06:03:30;;;;;;;10.93;6.22;;;4.80;66.20;;;;;;4998530;28;20166;-47
2022/11/14 06:06:18;;;;;;;7.75;6.03;;;4.80;66.20;;;;;;4987813;28;20048;-48
2022/11/14 06:09:06;;;;;;;11.38;6.88;;;4.80;66.10;;;;;;5010975;28;20104;-48
2022/11/14 06:11:51;;;;;;;10.32;6.38;;;4.70;66.10;;;;;;5011067;28;20135;-47
2022/11/14 06:14:38;;;;;;;9.18;6.22;;;4.80;66.20;;;;;;4995781;28;20058;-50
2022/11/14 06:17:26;;;;;;;11.10;7.03;;;4.80;66.30;;;;;;5008821;28;20049;-47
2022/11/14 06:20:12;;;;;;;13.70;6.80;;;4.70;66.30;;;;;;4971653;28;20629;-47
2022/11/14 06:23:01;;;;;;;7.82;6.35;;;4.80;66.40;;;;;;4978775;28;20049;-48
2022/11/14 06:25:46;;;;;;;11.00;7.10;;;4.80;66.60;;;;;;4991094;28;20101;-50
2022/11/14 06:28:32;;;;;;;9.10;7.28;;;4.80;66.60;;;;;;4998409;28;20067;-49
2022/11/14 06:31:19;;;;;;;10.88;6.80;;;4.80;66.80;;;;;;4999716;28;20077;-46
2022/11/14 06:34:09;;;;;;;12.35;7.15;;;4.80;66.90;;;;;;4971893;28;20057;-50
2022/11/14 06:36:54;;;;;;;17.08;8.18;;;4.80;66.90;;;;;;5001358;28;20056;-50
2022/11/14 06:39:40;;;;;;;11.35;7.00;;;4.80;67.00;;;;;;5010929;28;20675;-46
2022/11/14 06:42:27;;;;;;;14.25;7.85;;;4.80;67.10;;;;;;4986369;28;20053;-47
2022/11/14 06:45:13;;;;;;;11.60;7.97;;;4.80;67.20;;;;;;5003015;28;20057;-46
2022/11/14 06:47:59;;;;;;;13.23;8.43;;;4.90;67.30;;;;;;4988694;28;20053;-46
2022/11/14 06:50:53;;;;;;;15.43;8.95;;;4.90;67.40;;;;;;4998269;28;20057;-50
2022/11/14 06:53:42;;;;;;;12.30;8.13;;;4.90;67.60;;;;;;5009542;28;20108;-49
2022/11/14 06:56:31;;;;;;;17.27;8.85;;;4.90;67.60;;;;;;4991554;28;20414;-47
2022/11/14 06:59:21;;;;;;;16.33;9.07;;;5.00;67.70;;;;;;4994870;28;20095;-47
2022/11/14 07:02:15;;;;;;;12.55;7.90;;;5.00;67.80;;;;;;4980296;28;20058;-49
2022/11/14 07:05:08;;;;;;;10.70;7.85;;;5.00;67.70;;;;;;4991436;28;20113;-47
2022/11/14 07:07:56;;;;;;;11.48;7.93;;;5.00;67.60;;;;;;5012583;28;20053;-48
2022/11/14 07:10:50;;;;;;;13.57;7.85;;;5.10;67.70;;;;;;5014021;28;20108;-49
2022/11/14 07:13:37;;;;;;;13.95;7.78;;;5.10;67.60;;;;;;4991628;28;20126;-49
2022/11/14 07:16:30;;;;;;;12.93;7.43;;;5.10;67.60;;;;;;5012645;28;20056;-50
2022/11/14 07:19:16;;;;;;;13.50;8.20;;;5.10;67.70;;;;;;4987464;28;20044;-46
2022/11/14 07:22:01;;;;;;;9.68;7.72;;;5.20;67.70;;;;;;4991605;28;20061;-47
2022/11/14 07:24:46;;;;;;;10.60;7.68;;;5.20;67.80;;;;;;5001501;28;20546;-48
2022/11/14 07:27:39;;;;;;;14.23;7.38;;;5.20;67.80;;;;;;5013957;28;20125;-51
2022/11/14 07:30:25;;;;;;;12.63;8.35;;;5.20;67.90;;;;;;4981307;28;20057;-49
2022/11/14 07:33:10;;;;;;;10.02;7.88;;;5.20;67.90;;;;;;5006211;28;20052;-47
2022/11/14 07:35:58;;;;;;;14.50;8.07;;;5.30;68.00;;;;;;5013977;28;20072;-49
2022/11/14 07:38:46;;;;;;;11.48;8.70;;;5.30;68.30;;;;;;4978657;28;20053;-48
2022/11/14 07:41:31;;;;;;;12.73;8.70;;;5.30;68.40;;;;;;5004370;28;20057;-47
2022/11/14 07:44:25;;;;;;;14.70;9.95;;;5.40;68.80;;;;;;4993791;28;20165;-49
2022/11/14 07:47:13;;;;;;;16.98;10.85;;;5.40;69.60;;;;;;5012167;28;20057;-49
2022/11/14 07:49:58;;;;;;;15.75;10.55;;;5.50;69.90;;;;;;5013431;28;20109;-48
2022/11/14 07:52:50;;;;;;;15.20;10.77;;;5.50;70.10;;;;;;5002771;28;20057;-48
2022/11/14 07:55:36;;;;;;;18.20;12.63;;;5.60;70.60;;;;;;4999716;28;20132;-50
2022/11/14 07:58:22;;;;;;;19.08;12.63;;;5.70;70.60;;;;;;5001093;28;20061;-51
2022/11/14 08:01:10;;;;;;;23.65;13.23;;;5.80;71.10;;;;;;5009001;28;20123;-46
2022/11/14 08:03:58;;;;;;;21.75;13.43;;;5.90;71.50;;;;;;5013172;28;20060;-48
2022/11/14 08:06:46;;;;;;;20.23;12.68;;;6.00;71.70;;;;;;4997993;28;20610;-47
2022/11/14 08:09:34;;;;;;;19.30;12.90;;;6.10;71.90;;;;;;5002354;28;20131;-48
2022/11/14 08:12:22;;;;;;;19.45;13.77;;;6.20;72.30;;;;;;5003348;28;20154;-47
2022/11/14 08:15:11;;;;;;;21.40;14.65;;;6.30;72.20;;;;;;4999401;28;20057;-47
2022/11/14 08:18:01;;;;;;;20.33;14.23;;;6.40;72.30;;;;;;4990285;28;20048;-50
2022/11/14 08:20:51;;;;;;;22.05;15.50;;;6.50;72.40;;;;;;5010934;28;20560;-47
2022/11/14 08:23:38;;;;;;;25.15;15.40;;;6.50;72.40;;;;;;4996796;28;20390;-50
2022/11/14 08:26:29;;;;;;;24.73;15.77;;;6.60;72.50;;;;;;5008315;28;20525;-51
2022/11/14 08:29:20;;;;;;;26.48;16.55;;;6.70;72.80;;;;;;4974145;28;20058;-46
2022/11/14 08:32:08;;;;;;;23.52;15.35;;;6.80;72.90;;;;;;4983904;28;20605;-46
2022/11/14 08:34:56;;;;;;;25.38;16.25;;;6.90;73.00;;;;;;5002420;28;20054;-48
2022/11/14 08:37:41;;;;;;;27.45;16.80;;;7.00;73.30;;;;;;5008576;28;20176;-47
2022/11/14 08:40:27;;;;;;;25.02;17.02;;;7.10;73.10;;;;;;5012355;28;20068;-48
2022/11/14 08:43:12;;;;;;;25.20;16.02;;;7.10;73.20;;;;;;5000338;28;20136;-48
2022/11/14 08:45:59;;;;;;;26.23;16.42;;;7.20;73.20;;;;;;5009001;28;20053;-47
2022/11/14 08:48:46;;;;;;;30.92;17.63;;;7.30;73.20;;;;;;5012508;28;20048;-48
2022/11/14 08:51:31;;;;;;;26.05;17.40;;;7.40;73.20;;;;;;5005455;28;20078;-49
2022/11/14 08:54:16;;;;;;;27.50;17.85;;;7.40;73.20;;;;;;4990953;28;20422;-48
2022/11/14 08:57:07;;;;;;;29.75;18.52;;;7.50;73.30;;;;;;5010021;28;20056;-49
2022/11/14 08:59:54;;;;;;;28.80;16.90;;;7.60;73.60;;;;;;5012284;28;20071;-50
2022/11/14 09:02:42;;;;;;;25.55;16.67;;;7.70;73.30;;;;;;5010825;28;20127;-47
2022/11/14 09:05:28;;;;;;;25.65;16.70;;;7.80;73.30;;;;;;4996059;28;20045;-47
2022/11/14 09:08:14;;;;;;;28.25;18.73;;;7.80;73.20;;;;;;5012261;28;20084;-48
2022/11/14 09:11:05;;;;;;;31.00;19.08;;;7.90;73.20;;;;;;5010698;28;20056;-49
2022/11/14 09:13:54;;;;;;;28.73;17.83;;;7.90;73.20;;;;;;4996250;28;20419;-50
2022/11/14 09:16:42;;;;;;;29.65;19.38;;;8.00;73.40;;;;;;5007152;28;20052;-49
2022/11/14 09:19:32;;;;;;;28.55;18.85;;;8.10;73.40;;;;;;5011953;28;20053;-49
2022/11/14 09:22:20;;;;;;;30.92;18.58;;;8.10;73.60;;;;;;4990782;28;20213;-49
2022/11/14 09:25:12;;;;;;;29.30;17.98;;;8.20;73.70;;;;;;5003182;28;20425;-50
2022/11/14 09:28:03;;;;;;;27.65;19.38;;;8.30;73.50;;;;;;5011820;28;20537;-49
2022/11/14 09:30:49;;;;;;;30.37;18.30;;;8.30;73.70;;;;;;5004543;28;20089;-49
2022/11/14 09:33:37;;;;;;;29.15;18.60;;;8.40;73.40;;;;;;4991112;28;20057;-50
2022/11/14 09:36:24;;;;;;;23.23;16.35;;;8.40;73.30;;;;;;5001874;28;20053;-49
2022/11/14 09:39:12;;;;;;;26.52;17.33;;;8.50;73.30;;;;;;5008840;28;20104;-46
2022/11/14 09:42:23;;;;;;;31.65;19.85;;;8.60;73.30;;;;;;5002770;28;20453;-47
2022/11/14 09:45:17;;;;;;;29.35;19.42;;;8.60;73.50;;;;;;4978061;28;20462;-50
2022/11/14 09:48:12;;;;;;;29.98;18.63;;;8.70;73.90;;;;;;5011787;28;20104;-48
2022/11/14 09:51:08;;;;;;;24.63;17.42;;;8.80;74.20;;;;;;4988311;28;20049;-48
2022/11/14 09:54:12;;;;;;;30.98;19.40;;;8.90;73.90;;;;;;5010788;28;20208;-50
2022/11/14 09:57:01;;;;;;;28.23;19.13;;;9.10;74.50;;;;;;5011982;28;20146;-48
2022/11/14 09:59:51;;;;;;;28.75;17.83;;;9.30;74.00;;;;;;5003555;28;20541;-47
2022/11/14 10:02:40;;;;;;;28.83;17.10;;;9.40;73.70;;;;;;5002057;28;20053;-49
2022/11/14 10:06:01;;;;;;;26.48;17.40;;;9.60;73.50;;;;;;5011634;28;20561;-49
2022/11/14 10:09:01;;;;;;;26.80;17.50;;;9.70;73.60;;;;;;4988698;28;20050;-50
2022/11/14 10:12:10;;;;;;;25.38;17.40;;;9.90;73.00;;;;;;5005720;28;20413;-48
2022/11/14 10:15:14;;;;;;;24.33;16.15;;;10.00;73.00;;;;;;5011437;28;20061;-50
2022/11/14 10:18:46;;;;;;;26.98;17.48;;;10.10;72.60;;;;;;4998960;28;20164;-50
2022/11/14 10:21:57;;;;;;;25.38;17.25;;;10.20;72.20;;;;;;4968822;28;20514;-48
2022/11/14 10:24:43;;;;;;;26.40;16.75;;;10.30;71.90;;;;;;4970311;28;20155;-50
2022/11/14 10:27:54;;;;;;;27.10;17.30;;;10.40;71.30;;;;;;5004025;28;20423;-47
2022/11/14 10:31:00;;;;;;;25.75;17.23;;;10.60;71.30;;;;;;5001070;28;20108;-50
2022/11/14 10:34:08;;;;;;;24.02;15.68;;;10.60;71.10;;;;;;5011174;28;20080;-47
2022/11/14 10:36:59;;;;;;;24.77;16.08;;;10.70;70.70;;;;;;5005584;28;20057;-50
2022/11/14 10:39:51;;;;;;;25.48;17.10;;;10.80;70.30;;;;;;5001118;28;20057;-47
2022/11/14 10:42:43;;;;;;;21.42;15.43;;;10.80;70.10;;;;;;5015102;28;20049;-51
2022/11/14 10:45:43;;;;;;;24.27;15.50;;;10.90;70.00;;;;;;5014842;28;20526;-50
2022/11/14 10:48:55;;;;;;;25.20;16.38;;;10.90;70.00;;;;;;4996466;28;20097;-49
2022/11/14 10:52:15;;;;;;;23.55;15.77;;;11.00;69.80;;;;;;5009005;28;20064;-51
2022/11/14 10:55:11;;;;;;;22.80;15.15;;;11.00;69.60;;;;;;5005874;28;20181;-51
2022/11/14 10:57:59;;;;;;;21.75;14.90;;;11.00;69.30;;;;;;5010838;28;20053;-48
2022/11/14 11:00:44;;;;;;;24.52;15.07;;;11.00;69.20;;;;;;5014326;28;20604;-50
2022/11/14 11:03:43;;;;;;;23.00;15.57;;;11.00;69.10;;;;;;5007987;28;20053;-50
2022/11/14 11:06:28;;;;;;;21.92;15.30;;;11.00;69.00;;;;;;4993740;28;20044;-46
2022/11/14 11:12:35;;;;;;;22.33;14.75;;;11.00;69.10;;;;;;5014289;28;20107;-51
2022/11/14 11:15:22;;;;;;;21.63;13.93;;;11.00;69.10;;;;;;5001036;28;20058;-48
2022/11/14 11:18:36;;;;;;;16.95;13.18;;;11.00;69.20;;;;;;5013279;28;20104;-50
2022/11/14 11:21:22;;;;;;;19.75;13.20;;;11.10;69.50;;;;;;4975152;28;20069;-49
2022/11/14 11:24:08;;;;;;;18.90;12.40;;;11.10;69.30;;;;;;4989880;28;20529;-49
2022/11/14 11:27:12;;;;;;;17.52;12.35;;;11.10;69.90;;;;;;5009294;28;20173;-51
2022/11/14 11:30:02;;;;;;;17.42;12.38;;;11.20;69.20;;;;;;5014183;28;20091;-48
2022/11/14 11:32:49;;;;;;;19.80;13.40;;;11.30;69.30;;;;;;4994100;28;20053;-47
2022/11/14 11:35:46;;;;;;;16.05;12.27;;;11.30;69.20;;;;;;5006870;28;20450;-50
2022/11/14 11:38:33;;;;;;;15.50;11.38;;;11.40;68.80;;;;;;4982286;28;20518;-48
2022/11/14 11:41:34;;;;;;;16.80;12.38;;;11.50;68.70;;;;;;4993034;28;20042;-50
2022/11/14 11:44:49;;;;;;;16.38;11.88;;;11.60;68.50;;;;;;5020944;22;20061;-44
2022/11/14 11:47:38;;;;;;;16.23;11.70;;;11.60;68.30;;;;;;5013628;28;20096;-46
2022/11/14 11:50:25;;;;;;;15.68;11.43;;;11.70;68.30;;;;;;5006420;28;20556;-44
2022/11/14 11:53:22;;;;;;;16.40;11.43;;;11.70;68.20;;;;;;4985832;28;20132;-44
2022/11/14 11:56:23;;;;;;;16.10;11.73;;;11.70;68.00;;;;;;5004966;28;20719;-44
2022/11/14 11:59:33;;;;;;;16.17;11.60;;;11.80;68.00;;;;;;4974674;28;20530;-45
2022/11/14 12:02:25;;;;;;;16.27;11.02;;;11.80;67.90;;;;;;4982869;28;20096;-45
2022/11/14 12:05:15;;;;;;;16.25;11.65;;;11.90;67.80;;;;;;5006709;28;20048;-45
2022/11/14 12:08:29;;;;;;;15.82;10.75;;;11.80;67.90;;;;;;4974737;28;20530;-44
2022/11/14 12:11:21;;;;;;;12.27;9.90;;;11.90;68.10;;;;;;4988427;28;20150;-49
2022/11/14 12:14:22;;;;;;;13.88;10.68;;;12.00;68.10;;;;;;5013239;28;20067;-49
2022/11/14 12:17:46;;;;;;;16.42;12.57;;;12.00;68.00;;;;;;5013564;28;20120;-47
2022/11/14 12:20:48;;;;;;;17.33;11.75;;;12.10;67.70;;;;;;4984146;28;20058;-50
2022/11/14 12:23:41;;;;;;;;;;;12.20;67.40;;;;;;5000018;28;20123;-47
2022/11/14 12:26:58;;;;;;;15.10;11.82;;;12.30;67.70;;;;;;4974019;28;20295;-49
2022/11/14 12:30:02;;;;;;;16.98;12.57;;;12.30;66.70;;;;;;4996916;28;20077;-49
2022/11/14 12:33:00;;;;;;;16.25;12.20;;;12.40;66.30;;;;;;5012722;28;20056;-47
2022/11/14 12:35:51;;;;;;;17.58;12.98;;;12.40;66.20;;;;;;5008595;28;20113;-48
2022/11/14 12:38:49;;;;;;;17.60;12.77;;;12.40;66.00;;;;;;5000936;28;20062;-48
2022/11/14 12:41:39;;;;;;;16.83;13.13;;;12.40;65.90;;;;;;5018204;28;20052;-46
2022/11/14 12:44:27;;;;;;;15.20;11.55;;;12.40;65.90;;;;;;5001875;28;20053;-49
2022/11/14 12:47:21;;;;;;;18.35;13.93;;;12.40;65.90;;;;;;5008064;28;20058;-45
2022/11/14 12:50:27;;;;;;;16.27;12.73;;;12.40;65.60;;;;;;4982290;28;20045;-47
2022/11/14 12:53:37;;;;;;;16.58;12.75;;;12.40;65.50;;;;;;5000961;28;20076;-45
2022/11/14 12:56:31;;;;;;;15.80;12.52;;;12.30;65.60;;;;;;4992954;28;20069;-48
2022/11/14 12:59:21;;;;;;;17.45;13.30;;;12.30;65.50;;;;;;4990842;28;20578;-49
2022/11/14 13:02:47;;;;;;;20.08;13.38;;;12.20;65.70;;;;;;4996818;28;20049;-49
2022/11/14 13:06:04;;;;;;;16.63;12.65;;;12.20;65.70;;;;;;5007777;28;20056;-49
2022/11/14 13:09:08;;;;;;;17.25;12.48;;;12.20;65.80;;;;;;5007173;28;20052;-49
2022/11/14 13:21:48;;;;;;;17.00;12.55;;;12.30;66.10;;;;;;5006933;28;20528;-48
2022/11/14 13:24:59;;;;;;;19.52;12.90;;;12.30;66.20;;;;;;4972900;28;20524;-43
2022/11/14 13:27:46;;;;;;;19.90;14.65;;;12.30;65.80;;;;;;4994415;28;20056;-47
2022/11/14 13:31:14;;;;;;;17.45;12.68;;;12.30;65.90;;;;;;5011576;28;20057;-46
2022/11/14 13:34:20;;;;;;;14.02;10.98;;;12.30;65.10;;;;;;5011783;28;20625;-45
2022/11/14 13:37:39;;;;;;;14.68;10.57;;;12.30;65.20;;;;;;5000272;28;20052;-44
2022/11/14 13:41:03;;;;;;;10.80;9.30;;;12.30;64.60;;;;;;5001664;28;20618;-45
2022/11/14 13:44:01;;;;;;;12.48;10.07;;;12.30;65.00;;;;;;4998873;28;20062;-46
2022/11/14 13:46:57;;;;;;;11.00;8.52;;;12.30;64.80;;;;;;5003008;28;20129;-48
2022/11/14 13:49:58;;;;;;;11.45;8.63;;;12.30;65.20;;;;;;5011939;28;20058;-49
2022/11/14 13:52:46;;;;;;;11.70;7.72;;;12.20;65.00;;;;;;4993864;28;20176;-48
2022/11/14 13:55:54;;;;;;;9.05;7.13;;;12.10;65.40;;;;;;4991340;28;20124;-46
2022/11/14 13:59:33;;;;;;;9.50;7.30;;;12.10;66.00;;;;;;5005367;28;20561;-50
2022/11/14 14:02:39;;;;;;;7.90;6.13;;;12.10;66.40;;;;;;4967603;28;20070;-47
2022/11/14 14:05:46;;;;;;;7.88;6.95;;;12.10;66.40;;;;;;4960227;28;20050;-48
2022/11/14 14:09:02;;;;;;;10.30;6.75;;;12.00;66.90;;;;;;5004306;28;20053;-47
2022/11/14 14:12:19;;;;;;;8.55;7.13;;;12.00;67.10;;;;;;4998438;28;20505;-48
2022/11/14 14:15:14;;;;;;;8.65;7.75;;;11.90;67.10;;;;;;4986318;28;20075;-51
2022/11/14 14:18:19;;;;;;;14.70;9.43;;;11.90;67.20;;;;;;5015451;28;20132;-48
2022/11/14 14:21:49;;;;;;;11.95;9.30;;;11.80;67.10;;;;;;5006570;28;20237;-50
2022/11/14 14:25:07;;;;;;;11.48;8.98;;;11.80;67.60;;;;;;5010927;28;20061;-50
2022/11/14 14:28:18;;;;;;;12.60;8.52;;;11.80;67.70;;;;;;4976219;28;20054;-46
2022/11/14 14:31:06;;;;;;;10.88;8.93;;;11.80;67.70;;;;;;4980223;28;20054;-50
2022/11/14 14:33:54;;;;;;;11.88;9.38;;;11.80;67.70;;;;;;4997166;28;20545;-51
2022/11/14 14:36:51;;;;;;;11.30;9.23;;;11.70;67.90;;;;;;5015275;28;20065;-49
2022/11/14 14:39:39;;;;;;;14.05;9.73;;;11.70;68.10;;;;;;5015262;28;20164;-51
2022/11/14 14:42:29;;;;;;;16.40;11.15;;;11.70;68.10;;;;;;4995212;28;20107;-48
2022/11/14 14:45:24;;;;;;;14.07;9.85;;;11.70;68.10;;;;;;5002405;28;20168;-47
2022/11/14 14:48:15;;;;;;;12.82;10.20;;;11.70;68.20;;;;;;5015193;28;20053;-51
2022/11/14 14:51:09;;;;;;;15.45;10.05;;;11.70;68.40;;;;;;4998203;28;20136;-47
2022/11/14 14:53:58;;;;;;;13.73;10.13;;;11.70;68.30;;;;;;5011361;28;20092;-50
2022/11/14 14:56:53;;;;;;;16.80;10.45;;;11.60;68.30;;;;;;4997893;28;20136;-49
2022/11/14 14:59:40;;;;;;;13.80;9.75;;;11.70;68.60;;;;;;4991643;28;20466;-48
2022/11/14 15:02:27;;;;;;;16.00;10.98;;;11.60;68.40;;;;;;5003935;28;20056;-48